<?xml version="1.0" encoding="UTF-8" standalone="no" ?>
<gpx xmlns="http://www.topografix.com/GPX/1/1" xmlns:xsi="http://www.w3.org/2001/XMLSchema-instance" xsi:schemaLocation="http://www.topografix.com/GPX/1/1 http://www.topografix.com/GPX/1/1/gpx.xsd" version="1.1" creator="VisuGPX - https://www.visugpx.com">
  <metadata>
    <name>12871547-tour st Georges-fromage-dragonniere</name>
  </metadata>
  <trk>
    <name><![CDATA[12871547-tour st Georges-fromage-dragonniere]]></name>
    <trkseg>
      <trkpt lat="46.94263" lon="-1.2931">
        <ele>51</ele>
        <time>2021-04-15T16:11:43Z</time>
      </trkpt>
      <trkpt lat="46.94271" lon="-1.29324">
        <ele>51</ele>
        <time>2021-04-15T16:12:00Z</time>
      </trkpt>
      <trkpt lat="46.94261" lon="-1.29341">
        <ele>50</ele>
        <time>2021-04-15T16:12:20Z</time>
      </trkpt>
      <trkpt lat="46.9428" lon="-1.29364">
        <ele>48</ele>
        <time>2021-04-15T16:12:53Z</time>
      </trkpt>
      <trkpt lat="46.94286" lon="-1.29376">
        <ele>46</ele>
        <time>2021-04-15T16:13:07Z</time>
      </trkpt>
      <trkpt lat="46.9423" lon="-1.29427">
        <ele>46</ele>
        <time>2021-04-15T16:14:35Z</time>
      </trkpt>
      <trkpt lat="46.94219" lon="-1.29442">
        <ele>45</ele>
        <time>2021-04-15T16:14:55Z</time>
      </trkpt>
      <trkpt lat="46.9417" lon="-1.29587">
        <ele>43</ele>
        <time>2021-04-15T16:17:22Z</time>
      </trkpt>
      <trkpt lat="46.94158" lon="-1.2961">
        <ele>42</ele>
        <time>2021-04-15T16:17:48Z</time>
      </trkpt>
      <trkpt lat="46.94092" lon="-1.29709">
        <ele>38</ele>
        <time>2021-04-15T16:19:54Z</time>
      </trkpt>
      <trkpt lat="46.94064" lon="-1.29669">
        <ele>40</ele>
        <time>2021-04-15T16:20:47Z</time>
      </trkpt>
      <trkpt lat="46.94052" lon="-1.29663">
        <ele>39</ele>
        <time>2021-04-15T16:21:04Z</time>
      </trkpt>
      <trkpt lat="46.94031" lon="-1.2963">
        <ele>39</ele>
        <time>2021-04-15T16:21:45Z</time>
      </trkpt>
      <trkpt lat="46.94045" lon="-1.29525">
        <ele>43</ele>
        <time>2021-04-15T16:23:22Z</time>
      </trkpt>
      <trkpt lat="46.94037" lon="-1.29517">
        <ele>43</ele>
        <time>2021-04-15T16:23:35Z</time>
      </trkpt>
      <trkpt lat="46.94014" lon="-1.29516">
        <ele>41</ele>
        <time>2021-04-15T16:24:06Z</time>
      </trkpt>
      <trkpt lat="46.94004" lon="-1.29505">
        <ele>40</ele>
        <time>2021-04-15T16:24:22Z</time>
      </trkpt>
      <trkpt lat="46.94" lon="-1.29495">
        <ele>40</ele>
        <time>2021-04-15T16:24:33Z</time>
      </trkpt>
      <trkpt lat="46.93991" lon="-1.29468">
        <ele>39</ele>
        <time>2021-04-15T16:25:00Z</time>
      </trkpt>
      <trkpt lat="46.93989" lon="-1.29446">
        <ele>39</ele>
        <time>2021-04-15T16:25:21Z</time>
      </trkpt>
      <trkpt lat="46.93983" lon="-1.29427">
        <ele>39</ele>
        <time>2021-04-15T16:25:40Z</time>
      </trkpt>
      <trkpt lat="46.93976" lon="-1.2938">
        <ele>40</ele>
        <time>2021-04-15T16:26:23Z</time>
      </trkpt>
      <trkpt lat="46.93974" lon="-1.29349">
        <ele>41</ele>
        <time>2021-04-15T16:26:52Z</time>
      </trkpt>
      <trkpt lat="46.93968" lon="-1.29326">
        <ele>41</ele>
        <time>2021-04-15T16:27:14Z</time>
      </trkpt>
      <trkpt lat="46.93965" lon="-1.29299">
        <ele>42</ele>
        <time>2021-04-15T16:27:39Z</time>
      </trkpt>
      <trkpt lat="46.93944" lon="-1.29257">
        <ele>40</ele>
        <time>2021-04-15T16:28:27Z</time>
      </trkpt>
      <trkpt lat="46.9394" lon="-1.29213">
        <ele>41</ele>
        <time>2021-04-15T16:29:07Z</time>
      </trkpt>
      <trkpt lat="46.93878" lon="-1.29073">
        <ele>42</ele>
        <time>2021-04-15T16:31:39Z</time>
      </trkpt>
      <trkpt lat="46.93859" lon="-1.29044">
        <ele>43</ele>
        <time>2021-04-15T16:32:16Z</time>
      </trkpt>
      <trkpt lat="46.93842" lon="-1.29027">
        <ele>43</ele>
        <time>2021-04-15T16:32:43Z</time>
      </trkpt>
      <trkpt lat="46.93824" lon="-1.29017">
        <ele>43</ele>
        <time>2021-04-15T16:33:09Z</time>
      </trkpt>
      <trkpt lat="46.93792" lon="-1.29007">
        <ele>42</ele>
        <time>2021-04-15T16:33:53Z</time>
      </trkpt>
      <trkpt lat="46.93779" lon="-1.29014">
        <ele>41</ele>
        <time>2021-04-15T16:34:11Z</time>
      </trkpt>
      <trkpt lat="46.9376" lon="-1.29017">
        <ele>40</ele>
        <time>2021-04-15T16:34:37Z</time>
      </trkpt>
      <trkpt lat="46.93737" lon="-1.29019">
        <ele>39</ele>
        <time>2021-04-15T16:35:07Z</time>
      </trkpt>
      <trkpt lat="46.93719" lon="-1.29013">
        <ele>39</ele>
        <time>2021-04-15T16:35:32Z</time>
      </trkpt>
      <trkpt lat="46.93698" lon="-1.29019">
        <ele>38</ele>
        <time>2021-04-15T16:36:01Z</time>
      </trkpt>
      <trkpt lat="46.93689" lon="-1.29031">
        <ele>38</ele>
        <time>2021-04-15T16:36:17Z</time>
      </trkpt>
      <trkpt lat="46.93666" lon="-1.29039">
        <ele>37</ele>
        <time>2021-04-15T16:36:48Z</time>
      </trkpt>
      <trkpt lat="46.93648" lon="-1.29057">
        <ele>36</ele>
        <time>2021-04-15T16:37:17Z</time>
      </trkpt>
      <trkpt lat="46.93634" lon="-1.29082">
        <ele>34</ele>
        <time>2021-04-15T16:37:47Z</time>
      </trkpt>
      <trkpt lat="46.93624" lon="-1.29094">
        <ele>34</ele>
        <time>2021-04-15T16:38:04Z</time>
      </trkpt>
      <trkpt lat="46.9362" lon="-1.2913">
        <ele>34</ele>
        <time>2021-04-15T16:38:37Z</time>
      </trkpt>
      <trkpt lat="46.93615" lon="-1.29151">
        <ele>34</ele>
        <time>2021-04-15T16:38:58Z</time>
      </trkpt>
      <trkpt lat="46.93599" lon="-1.2916">
        <ele>33</ele>
        <time>2021-04-15T16:39:20Z</time>
      </trkpt>
      <trkpt lat="46.93592" lon="-1.29158">
        <ele>33</ele>
        <time>2021-04-15T16:39:30Z</time>
      </trkpt>
      <trkpt lat="46.93579" lon="-1.29148">
        <ele>33</ele>
        <time>2021-04-15T16:39:50Z</time>
      </trkpt>
      <trkpt lat="46.93575" lon="-1.29133">
        <ele>33</ele>
        <time>2021-04-15T16:40:04Z</time>
      </trkpt>
      <trkpt lat="46.9357" lon="-1.29087">
        <ele>33</ele>
        <time>2021-04-15T16:40:47Z</time>
      </trkpt>
      <trkpt lat="46.93572" lon="-1.29063">
        <ele>34</ele>
        <time>2021-04-15T16:41:09Z</time>
      </trkpt>
      <trkpt lat="46.93568" lon="-1.29041">
        <ele>34</ele>
        <time>2021-04-15T16:41:29Z</time>
      </trkpt>
      <trkpt lat="46.93516" lon="-1.29029">
        <ele>34</ele>
        <time>2021-04-15T16:42:40Z</time>
      </trkpt>
      <trkpt lat="46.93503" lon="-1.29021">
        <ele>34</ele>
        <time>2021-04-15T16:42:59Z</time>
      </trkpt>
      <trkpt lat="46.93505" lon="-1.29008">
        <ele>33</ele>
        <time>2021-04-15T16:43:11Z</time>
      </trkpt>
      <trkpt lat="46.93508" lon="-1.29007">
        <ele>33</ele>
        <time>2021-04-15T16:43:15Z</time>
      </trkpt>
      <trkpt lat="46.93506" lon="-1.29003">
        <ele>33</ele>
        <time>2021-04-15T16:43:19Z</time>
      </trkpt>
      <trkpt lat="46.93489" lon="-1.29005">
        <ele>34</ele>
        <time>2021-04-15T16:43:42Z</time>
      </trkpt>
      <trkpt lat="46.93483" lon="-1.28998">
        <ele>34</ele>
        <time>2021-04-15T16:43:52Z</time>
      </trkpt>
      <trkpt lat="46.93499" lon="-1.28975">
        <ele>33</ele>
        <time>2021-04-15T16:44:22Z</time>
      </trkpt>
      <trkpt lat="46.93503" lon="-1.28965">
        <ele>34</ele>
        <time>2021-04-15T16:44:33Z</time>
      </trkpt>
      <trkpt lat="46.9351" lon="-1.28958">
        <ele>34</ele>
        <time>2021-04-15T16:44:44Z</time>
      </trkpt>
      <trkpt lat="46.93513" lon="-1.2894">
        <ele>34</ele>
        <time>2021-04-15T16:45:01Z</time>
      </trkpt>
      <trkpt lat="46.93519" lon="-1.28931">
        <ele>35</ele>
        <time>2021-04-15T16:45:12Z</time>
      </trkpt>
      <trkpt lat="46.93519" lon="-1.28925">
        <ele>35</ele>
        <time>2021-04-15T16:45:18Z</time>
      </trkpt>
      <trkpt lat="46.93512" lon="-1.28888">
        <ele>35</ele>
        <time>2021-04-15T16:45:53Z</time>
      </trkpt>
      <trkpt lat="46.93505" lon="-1.28871">
        <ele>35</ele>
        <time>2021-04-15T16:46:11Z</time>
      </trkpt>
      <trkpt lat="46.93486" lon="-1.28845">
        <ele>35</ele>
        <time>2021-04-15T16:46:46Z</time>
      </trkpt>
      <trkpt lat="46.93471" lon="-1.28806">
        <ele>34</ele>
        <time>2021-04-15T16:47:26Z</time>
      </trkpt>
      <trkpt lat="46.93473" lon="-1.28772">
        <ele>34</ele>
        <time>2021-04-15T16:47:58Z</time>
      </trkpt>
      <trkpt lat="46.93482" lon="-1.28719">
        <ele>36</ele>
        <time>2021-04-15T16:48:47Z</time>
      </trkpt>
      <trkpt lat="46.93472" lon="-1.28661">
        <ele>37</ele>
        <time>2021-04-15T16:49:42Z</time>
      </trkpt>
      <trkpt lat="46.93462" lon="-1.28622">
        <ele>37</ele>
        <time>2021-04-15T16:50:20Z</time>
      </trkpt>
      <trkpt lat="46.9345" lon="-1.28545">
        <ele>38</ele>
        <time>2021-04-15T16:51:32Z</time>
      </trkpt>
      <trkpt lat="46.93421" lon="-1.28452">
        <ele>38</ele>
        <time>2021-04-15T16:53:05Z</time>
      </trkpt>
      <trkpt lat="46.93405" lon="-1.28414">
        <ele>39</ele>
        <time>2021-04-15T16:53:46Z</time>
      </trkpt>
      <trkpt lat="46.93403" lon="-1.28397">
        <ele>40</ele>
        <time>2021-04-15T16:54:01Z</time>
      </trkpt>
      <trkpt lat="46.93389" lon="-1.28342">
        <ele>42</ele>
        <time>2021-04-15T16:54:55Z</time>
      </trkpt>
      <trkpt lat="46.93368" lon="-1.28286">
        <ele>45</ele>
        <time>2021-04-15T16:55:53Z</time>
      </trkpt>
      <trkpt lat="46.93366" lon="-1.2827">
        <ele>46</ele>
        <time>2021-04-15T16:56:08Z</time>
      </trkpt>
      <trkpt lat="46.93338" lon="-1.28245">
        <ele>47</ele>
        <time>2021-04-15T16:56:52Z</time>
      </trkpt>
      <trkpt lat="46.93293" lon="-1.28218">
        <ele>48</ele>
        <time>2021-04-15T16:57:57Z</time>
      </trkpt>
      <trkpt lat="46.93274" lon="-1.282">
        <ele>50</ele>
        <time>2021-04-15T16:58:27Z</time>
      </trkpt>
      <trkpt lat="46.93268" lon="-1.28197">
        <ele>50</ele>
        <time>2021-04-15T16:58:35Z</time>
      </trkpt>
      <trkpt lat="46.93247" lon="-1.28198">
        <ele>49</ele>
        <time>2021-04-15T16:59:03Z</time>
      </trkpt>
      <trkpt lat="46.93227" lon="-1.28215">
        <ele>48</ele>
        <time>2021-04-15T16:59:34Z</time>
      </trkpt>
      <trkpt lat="46.93213" lon="-1.28215">
        <ele>48</ele>
        <time>2021-04-15T16:59:53Z</time>
      </trkpt>
      <trkpt lat="46.93204" lon="-1.2824">
        <ele>46</ele>
        <time>2021-04-15T17:00:18Z</time>
      </trkpt>
      <trkpt lat="46.93186" lon="-1.28265">
        <ele>45</ele>
        <time>2021-04-15T17:00:52Z</time>
      </trkpt>
      <trkpt lat="46.9317" lon="-1.28285">
        <ele>43</ele>
        <time>2021-04-15T17:01:20Z</time>
      </trkpt>
      <trkpt lat="46.93133" lon="-1.28321">
        <ele>41</ele>
        <time>2021-04-15T17:02:19Z</time>
      </trkpt>
      <trkpt lat="46.93003" lon="-1.28373">
        <ele>39</ele>
        <time>2021-04-15T17:05:19Z</time>
      </trkpt>
      <trkpt lat="46.92969" lon="-1.28384">
        <ele>38</ele>
        <time>2021-04-15T17:06:05Z</time>
      </trkpt>
      <trkpt lat="46.92967" lon="-1.28373">
        <ele>39</ele>
        <time>2021-04-15T17:06:16Z</time>
      </trkpt>
      <trkpt lat="46.92948" lon="-1.28357">
        <ele>39</ele>
        <time>2021-04-15T17:06:45Z</time>
      </trkpt>
      <trkpt lat="46.9292" lon="-1.2834">
        <ele>40</ele>
        <time>2021-04-15T17:07:25Z</time>
      </trkpt>
      <trkpt lat="46.92579" lon="-1.28088">
        <ele>36</ele>
        <time>2021-04-15T17:15:55Z</time>
      </trkpt>
      <trkpt lat="46.92501" lon="-1.28036">
        <ele>37</ele>
        <time>2021-04-15T17:17:49Z</time>
      </trkpt>
      <trkpt lat="46.92482" lon="-1.28018">
        <ele>37</ele>
        <time>2021-04-15T17:18:20Z</time>
      </trkpt>
      <trkpt lat="46.92471" lon="-1.27995">
        <ele>37</ele>
        <time>2021-04-15T17:18:45Z</time>
      </trkpt>
      <trkpt lat="46.92464" lon="-1.27965">
        <ele>38</ele>
        <time>2021-04-15T17:19:14Z</time>
      </trkpt>
      <trkpt lat="46.92423" lon="-1.27293">
        <ele>52</ele>
        <time>2021-04-15T17:29:29Z</time>
      </trkpt>
      <trkpt lat="46.92339" lon="-1.2733">
        <ele>41</ele>
        <time>2021-04-15T17:31:26Z</time>
      </trkpt>
      <trkpt lat="46.92273" lon="-1.27342">
        <ele>39</ele>
        <time>2021-04-15T17:32:55Z</time>
      </trkpt>
      <trkpt lat="46.92255" lon="-1.2734">
        <ele>39</ele>
        <time>2021-04-15T17:33:19Z</time>
      </trkpt>
      <trkpt lat="46.92243" lon="-1.27335">
        <ele>40</ele>
        <time>2021-04-15T17:33:36Z</time>
      </trkpt>
      <trkpt lat="46.92232" lon="-1.27325">
        <ele>42</ele>
        <time>2021-04-15T17:33:53Z</time>
      </trkpt>
      <trkpt lat="46.92222" lon="-1.273">
        <ele>44</ele>
        <time>2021-04-15T17:34:19Z</time>
      </trkpt>
      <trkpt lat="46.92211" lon="-1.27235">
        <ele>45</ele>
        <time>2021-04-15T17:35:20Z</time>
      </trkpt>
      <trkpt lat="46.92204" lon="-1.27216">
        <ele>46</ele>
        <time>2021-04-15T17:35:40Z</time>
      </trkpt>
      <trkpt lat="46.92196" lon="-1.27206">
        <ele>46</ele>
        <time>2021-04-15T17:35:54Z</time>
      </trkpt>
      <trkpt lat="46.92179" lon="-1.27196">
        <ele>47</ele>
        <time>2021-04-15T17:36:18Z</time>
      </trkpt>
      <trkpt lat="46.92154" lon="-1.27188">
        <ele>48</ele>
        <time>2021-04-15T17:36:53Z</time>
      </trkpt>
      <trkpt lat="46.92155" lon="-1.27174">
        <ele>48</ele>
        <time>2021-04-15T17:37:05Z</time>
      </trkpt>
      <trkpt lat="46.92149" lon="-1.27159">
        <ele>48</ele>
        <time>2021-04-15T17:37:21Z</time>
      </trkpt>
      <trkpt lat="46.92124" lon="-1.27119">
        <ele>45</ele>
        <time>2021-04-15T17:38:11Z</time>
      </trkpt>
      <trkpt lat="46.92077" lon="-1.27063">
        <ele>44</ele>
        <time>2021-04-15T17:39:32Z</time>
      </trkpt>
      <trkpt lat="46.92026" lon="-1.27044">
        <ele>46</ele>
        <time>2021-04-15T17:40:42Z</time>
      </trkpt>
      <trkpt lat="46.92007" lon="-1.27024">
        <ele>47</ele>
        <time>2021-04-15T17:41:13Z</time>
      </trkpt>
      <trkpt lat="46.91989" lon="-1.26987">
        <ele>49</ele>
        <time>2021-04-15T17:41:54Z</time>
      </trkpt>
      <trkpt lat="46.91986" lon="-1.26972">
        <ele>49</ele>
        <time>2021-04-15T17:42:09Z</time>
      </trkpt>
      <trkpt lat="46.91987" lon="-1.26939">
        <ele>50</ele>
        <time>2021-04-15T17:42:39Z</time>
      </trkpt>
      <trkpt lat="46.91971" lon="-1.26882">
        <ele>51</ele>
        <time>2021-04-15T17:43:35Z</time>
      </trkpt>
      <trkpt lat="46.9196" lon="-1.26831">
        <ele>50</ele>
        <time>2021-04-15T17:44:24Z</time>
      </trkpt>
      <trkpt lat="46.91927" lon="-1.26764">
        <ele>50</ele>
        <time>2021-04-15T17:45:39Z</time>
      </trkpt>
      <trkpt lat="46.9191" lon="-1.26743">
        <ele>50</ele>
        <time>2021-04-15T17:46:09Z</time>
      </trkpt>
      <trkpt lat="46.91873" lon="-1.26712">
        <ele>49</ele>
        <time>2021-04-15T17:47:06Z</time>
      </trkpt>
      <trkpt lat="46.91861" lon="-1.26699">
        <ele>49</ele>
        <time>2021-04-15T17:47:25Z</time>
      </trkpt>
      <trkpt lat="46.9184" lon="-1.26657">
        <ele>48</ele>
        <time>2021-04-15T17:48:13Z</time>
      </trkpt>
      <trkpt lat="46.9182" lon="-1.26609">
        <ele>48</ele>
        <time>2021-04-15T17:49:04Z</time>
      </trkpt>
      <trkpt lat="46.9181" lon="-1.26595">
        <ele>48</ele>
        <time>2021-04-15T17:49:23Z</time>
      </trkpt>
      <trkpt lat="46.91798" lon="-1.26589">
        <ele>48</ele>
        <time>2021-04-15T17:49:40Z</time>
      </trkpt>
      <trkpt lat="46.91791" lon="-1.2659">
        <ele>49</ele>
        <time>2021-04-15T17:49:49Z</time>
      </trkpt>
      <trkpt lat="46.91775" lon="-1.26603">
        <ele>51</ele>
        <time>2021-04-15T17:50:13Z</time>
      </trkpt>
      <trkpt lat="46.91772" lon="-1.26598">
        <ele>50</ele>
        <time>2021-04-15T17:50:19Z</time>
      </trkpt>
      <trkpt lat="46.91693" lon="-1.26285">
        <ele>42</ele>
        <time>2021-04-15T17:55:24Z</time>
      </trkpt>
      <trkpt lat="46.91687" lon="-1.26281">
        <ele>42</ele>
        <time>2021-04-15T17:55:32Z</time>
      </trkpt>
      <trkpt lat="46.91609" lon="-1.26322">
        <ele>45</ele>
        <time>2021-04-15T17:57:23Z</time>
      </trkpt>
      <trkpt lat="46.91535" lon="-1.26354">
        <ele>46</ele>
        <time>2021-04-15T17:59:06Z</time>
      </trkpt>
      <trkpt lat="46.91531" lon="-1.26353">
        <ele>46</ele>
        <time>2021-04-15T17:59:11Z</time>
      </trkpt>
      <trkpt lat="46.9151" lon="-1.26254">
        <ele>44</ele>
        <time>2021-04-15T18:00:46Z</time>
      </trkpt>
      <trkpt lat="46.9153" lon="-1.26183">
        <ele>41</ele>
        <time>2021-04-15T18:01:56Z</time>
      </trkpt>
      <trkpt lat="46.91573" lon="-1.26052">
        <ele>36</ele>
        <time>2021-04-15T18:04:08Z</time>
      </trkpt>
      <trkpt lat="46.91587" lon="-1.26011">
        <ele>35</ele>
        <time>2021-04-15T18:04:50Z</time>
      </trkpt>
      <trkpt lat="46.91609" lon="-1.25973">
        <ele>38</ele>
        <time>2021-04-15T18:05:35Z</time>
      </trkpt>
      <trkpt lat="46.91617" lon="-1.25935">
        <ele>41</ele>
        <time>2021-04-15T18:06:12Z</time>
      </trkpt>
      <trkpt lat="46.91623" lon="-1.25943">
        <ele>41</ele>
        <time>2021-04-15T18:06:23Z</time>
      </trkpt>
      <trkpt lat="46.91646" lon="-1.25949">
        <ele>42</ele>
        <time>2021-04-15T18:06:54Z</time>
      </trkpt>
      <trkpt lat="46.91651" lon="-1.25946">
        <ele>42</ele>
        <time>2021-04-15T18:07:01Z</time>
      </trkpt>
      <trkpt lat="46.91658" lon="-1.25951">
        <ele>42</ele>
        <time>2021-04-15T18:07:11Z</time>
      </trkpt>
      <trkpt lat="46.91692" lon="-1.2596">
        <ele>44</ele>
        <time>2021-04-15T18:07:57Z</time>
      </trkpt>
      <trkpt lat="46.91714" lon="-1.25971">
        <ele>45</ele>
        <time>2021-04-15T18:08:28Z</time>
      </trkpt>
      <trkpt lat="46.91738" lon="-1.25987">
        <ele>45</ele>
        <time>2021-04-15T18:09:04Z</time>
      </trkpt>
      <trkpt lat="46.91766" lon="-1.25999">
        <ele>46</ele>
        <time>2021-04-15T18:09:43Z</time>
      </trkpt>
      <trkpt lat="46.91791" lon="-1.26019">
        <ele>46</ele>
        <time>2021-04-15T18:10:21Z</time>
      </trkpt>
      <trkpt lat="46.91833" lon="-1.26047">
        <ele>46</ele>
        <time>2021-04-15T18:11:22Z</time>
      </trkpt>
      <trkpt lat="46.91881" lon="-1.26087">
        <ele>45</ele>
        <time>2021-04-15T18:12:36Z</time>
      </trkpt>
      <trkpt lat="46.91894" lon="-1.26095">
        <ele>45</ele>
        <time>2021-04-15T18:12:55Z</time>
      </trkpt>
      <trkpt lat="46.9194" lon="-1.26139">
        <ele>44</ele>
        <time>2021-04-15T18:14:08Z</time>
      </trkpt>
      <trkpt lat="46.91982" lon="-1.26184">
        <ele>44</ele>
        <time>2021-04-15T18:15:18Z</time>
      </trkpt>
      <trkpt lat="46.92081" lon="-1.26302">
        <ele>44</ele>
        <time>2021-04-15T18:18:08Z</time>
      </trkpt>
      <trkpt lat="46.92128" lon="-1.26377">
        <ele>42</ele>
        <time>2021-04-15T18:19:41Z</time>
      </trkpt>
      <trkpt lat="46.92164" lon="-1.26415">
        <ele>43</ele>
        <time>2021-04-15T18:20:40Z</time>
      </trkpt>
      <trkpt lat="46.92173" lon="-1.26433">
        <ele>43</ele>
        <time>2021-04-15T18:21:00Z</time>
      </trkpt>
      <trkpt lat="46.92189" lon="-1.26503">
        <ele>42</ele>
        <time>2021-04-15T18:22:07Z</time>
      </trkpt>
      <trkpt lat="46.92343" lon="-1.26641">
        <ele>53</ele>
        <time>2021-04-15T18:26:08Z</time>
      </trkpt>
      <trkpt lat="46.925" lon="-1.26788">
        <ele>60</ele>
        <time>2021-04-15T18:30:17Z</time>
      </trkpt>
      <trkpt lat="46.92604" lon="-1.26906">
        <ele>61</ele>
        <time>2021-04-15T18:33:13Z</time>
      </trkpt>
      <trkpt lat="46.92608" lon="-1.26926">
        <ele>62</ele>
        <time>2021-04-15T18:33:32Z</time>
      </trkpt>
      <trkpt lat="46.92618" lon="-1.26929">
        <ele>62</ele>
        <time>2021-04-15T18:33:45Z</time>
      </trkpt>
      <trkpt lat="46.92653" lon="-1.26984">
        <ele>64</ele>
        <time>2021-04-15T18:34:54Z</time>
      </trkpt>
      <trkpt lat="46.92664" lon="-1.26968">
        <ele>64</ele>
        <time>2021-04-15T18:35:14Z</time>
      </trkpt>
      <trkpt lat="46.92675" lon="-1.2694">
        <ele>63</ele>
        <time>2021-04-15T18:35:44Z</time>
      </trkpt>
      <trkpt lat="46.92701" lon="-1.26845">
        <ele>63</ele>
        <time>2021-04-15T18:37:17Z</time>
      </trkpt>
      <trkpt lat="46.92757" lon="-1.26828">
        <ele>64</ele>
        <time>2021-04-15T18:38:34Z</time>
      </trkpt>
      <trkpt lat="46.92777" lon="-1.26817">
        <ele>65</ele>
        <time>2021-04-15T18:39:02Z</time>
      </trkpt>
      <trkpt lat="46.92817" lon="-1.26774">
        <ele>65</ele>
        <time>2021-04-15T18:40:08Z</time>
      </trkpt>
      <trkpt lat="46.92856" lon="-1.26662">
        <ele>66</ele>
        <time>2021-04-15T18:42:03Z</time>
      </trkpt>
      <trkpt lat="46.92886" lon="-1.26588">
        <ele>67</ele>
        <time>2021-04-15T18:43:21Z</time>
      </trkpt>
      <trkpt lat="46.92904" lon="-1.2653">
        <ele>68</ele>
        <time>2021-04-15T18:44:19Z</time>
      </trkpt>
      <trkpt lat="46.92907" lon="-1.2648">
        <ele>68</ele>
        <time>2021-04-15T18:45:05Z</time>
      </trkpt>
      <trkpt lat="46.92911" lon="-1.26472">
        <ele>68</ele>
        <time>2021-04-15T18:45:14Z</time>
      </trkpt>
      <trkpt lat="46.93004" lon="-1.26431">
        <ele>69</ele>
        <time>2021-04-15T18:47:24Z</time>
      </trkpt>
      <trkpt lat="46.93059" lon="-1.26535">
        <ele>68</ele>
        <time>2021-04-15T18:49:24Z</time>
      </trkpt>
      <trkpt lat="46.93211" lon="-1.26409">
        <ele>68</ele>
        <time>2021-04-15T18:53:17Z</time>
      </trkpt>
      <trkpt lat="46.93335" lon="-1.26296">
        <ele>68</ele>
        <time>2021-04-15T18:56:32Z</time>
      </trkpt>
      <trkpt lat="46.93083" lon="-1.25842">
        <ele>71</ele>
        <time>2021-04-15T19:05:25Z</time>
      </trkpt>
      <trkpt lat="46.92978" lon="-1.25675">
        <ele>69</ele>
        <time>2021-04-15T19:08:52Z</time>
      </trkpt>
      <trkpt lat="46.92521" lon="-1.24899">
        <ele>70</ele>
        <time>2021-04-15T19:24:25Z</time>
      </trkpt>
      <trkpt lat="46.92599" lon="-1.24734">
        <ele>68</ele>
        <time>2021-04-15T19:27:28Z</time>
      </trkpt>
      <trkpt lat="46.92614" lon="-1.24639">
        <ele>67</ele>
        <time>2021-04-15T19:28:57Z</time>
      </trkpt>
      <trkpt lat="46.92632" lon="-1.24561">
        <ele>66</ele>
        <time>2021-04-15T19:30:12Z</time>
      </trkpt>
      <trkpt lat="46.92655" lon="-1.24499">
        <ele>65</ele>
        <time>2021-04-15T19:31:16Z</time>
      </trkpt>
      <trkpt lat="46.9269" lon="-1.24427">
        <ele>64</ele>
        <time>2021-04-15T19:32:37Z</time>
      </trkpt>
      <trkpt lat="46.92781" lon="-1.24287">
        <ele>58</ele>
        <time>2021-04-15T19:35:33Z</time>
      </trkpt>
      <trkpt lat="46.92823" lon="-1.24206">
        <ele>57</ele>
        <time>2021-04-15T19:37:06Z</time>
      </trkpt>
      <trkpt lat="46.92808" lon="-1.24167">
        <ele>58</ele>
        <time>2021-04-15T19:37:47Z</time>
      </trkpt>
      <trkpt lat="46.92801" lon="-1.24136">
        <ele>59</ele>
        <time>2021-04-15T19:38:16Z</time>
      </trkpt>
      <trkpt lat="46.92804" lon="-1.24044">
        <ele>61</ele>
        <time>2021-04-15T19:39:40Z</time>
      </trkpt>
      <trkpt lat="46.92809" lon="-1.23978">
        <ele>63</ele>
        <time>2021-04-15T19:40:41Z</time>
      </trkpt>
      <trkpt lat="46.92844" lon="-1.23935">
        <ele>64</ele>
        <time>2021-04-15T19:41:42Z</time>
      </trkpt>
      <trkpt lat="46.92855" lon="-1.23909">
        <ele>64</ele>
        <time>2021-04-15T19:42:10Z</time>
      </trkpt>
      <trkpt lat="46.92854" lon="-1.23892">
        <ele>64</ele>
        <time>2021-04-15T19:42:25Z</time>
      </trkpt>
      <trkpt lat="46.92882" lon="-1.23864">
        <ele>63</ele>
        <time>2021-04-15T19:43:10Z</time>
      </trkpt>
      <trkpt lat="46.92917" lon="-1.23848">
        <ele>62</ele>
        <time>2021-04-15T19:43:59Z</time>
      </trkpt>
      <trkpt lat="46.92953" lon="-1.23868">
        <ele>61</ele>
        <time>2021-04-15T19:44:51Z</time>
      </trkpt>
      <trkpt lat="46.92959" lon="-1.239">
        <ele>62</ele>
        <time>2021-04-15T19:45:21Z</time>
      </trkpt>
      <trkpt lat="46.92961" lon="-1.23929">
        <ele>62</ele>
        <time>2021-04-15T19:45:48Z</time>
      </trkpt>
      <trkpt lat="46.9297" lon="-1.23958">
        <ele>61</ele>
        <time>2021-04-15T19:46:17Z</time>
      </trkpt>
      <trkpt lat="46.92987" lon="-1.23999">
        <ele>60</ele>
        <time>2021-04-15T19:47:00Z</time>
      </trkpt>
      <trkpt lat="46.93044" lon="-1.23996">
        <ele>53</ele>
        <time>2021-04-15T19:48:16Z</time>
      </trkpt>
      <trkpt lat="46.93111" lon="-1.24011">
        <ele>45</ele>
        <time>2021-04-15T19:49:47Z</time>
      </trkpt>
      <trkpt lat="46.93117" lon="-1.24019">
        <ele>44</ele>
        <time>2021-04-15T19:49:58Z</time>
      </trkpt>
      <trkpt lat="46.93113" lon="-1.24045">
        <ele>43</ele>
        <time>2021-04-15T19:50:22Z</time>
      </trkpt>
      <trkpt lat="46.93115" lon="-1.24077">
        <ele>42</ele>
        <time>2021-04-15T19:50:51Z</time>
      </trkpt>
      <trkpt lat="46.93131" lon="-1.24161">
        <ele>44</ele>
        <time>2021-04-15T19:52:11Z</time>
      </trkpt>
      <trkpt lat="46.93145" lon="-1.2419">
        <ele>46</ele>
        <time>2021-04-15T19:52:43Z</time>
      </trkpt>
      <trkpt lat="46.9316" lon="-1.24209">
        <ele>47</ele>
        <time>2021-04-15T19:53:10Z</time>
      </trkpt>
      <trkpt lat="46.93183" lon="-1.24231">
        <ele>48</ele>
        <time>2021-04-15T19:53:46Z</time>
      </trkpt>
      <trkpt lat="46.93212" lon="-1.24257">
        <ele>49</ele>
        <time>2021-04-15T19:54:32Z</time>
      </trkpt>
      <trkpt lat="46.93239" lon="-1.24274">
        <ele>49</ele>
        <time>2021-04-15T19:55:11Z</time>
      </trkpt>
      <trkpt lat="46.93318" lon="-1.24308">
        <ele>50</ele>
        <time>2021-04-15T19:57:01Z</time>
      </trkpt>
      <trkpt lat="46.93377" lon="-1.24325">
        <ele>49</ele>
        <time>2021-04-15T19:58:21Z</time>
      </trkpt>
      <trkpt lat="46.9343" lon="-1.24346">
        <ele>49</ele>
        <time>2021-04-15T19:59:34Z</time>
      </trkpt>
      <trkpt lat="46.93488" lon="-1.24362">
        <ele>50</ele>
        <time>2021-04-15T20:00:53Z</time>
      </trkpt>
      <trkpt lat="46.93517" lon="-1.24376">
        <ele>51</ele>
        <time>2021-04-15T20:01:34Z</time>
      </trkpt>
      <trkpt lat="46.93543" lon="-1.24383">
        <ele>49</ele>
        <time>2021-04-15T20:02:09Z</time>
      </trkpt>
      <trkpt lat="46.93562" lon="-1.24402">
        <ele>48</ele>
        <time>2021-04-15T20:02:40Z</time>
      </trkpt>
      <trkpt lat="46.93578" lon="-1.24428">
        <ele>46</ele>
        <time>2021-04-15T20:03:12Z</time>
      </trkpt>
      <trkpt lat="46.93592" lon="-1.24463">
        <ele>47</ele>
        <time>2021-04-15T20:03:49Z</time>
      </trkpt>
      <trkpt lat="46.93583" lon="-1.24455">
        <ele>47</ele>
        <time>2021-04-15T20:04:03Z</time>
      </trkpt>
      <trkpt lat="46.9352" lon="-1.24435">
        <ele>54</ele>
        <time>2021-04-15T20:05:29Z</time>
      </trkpt>
      <trkpt lat="46.93498" lon="-1.24438">
        <ele>57</ele>
        <time>2021-04-15T20:05:58Z</time>
      </trkpt>
      <trkpt lat="46.93483" lon="-1.24443">
        <ele>57</ele>
        <time>2021-04-15T20:06:19Z</time>
      </trkpt>
      <trkpt lat="46.93451" lon="-1.24463">
        <ele>58</ele>
        <time>2021-04-15T20:07:05Z</time>
      </trkpt>
      <trkpt lat="46.93404" lon="-1.24484">
        <ele>59</ele>
        <time>2021-04-15T20:08:11Z</time>
      </trkpt>
      <trkpt lat="46.93558" lon="-1.24903">
        <ele>51</ele>
        <time>2021-04-15T20:15:24Z</time>
      </trkpt>
      <trkpt lat="46.93599" lon="-1.25025">
        <ele>49</ele>
        <time>2021-04-15T20:17:28Z</time>
      </trkpt>
      <trkpt lat="46.93328" lon="-1.25234">
        <ele>63</ele>
        <time>2021-04-15T20:24:17Z</time>
      </trkpt>
      <trkpt lat="46.93339" lon="-1.25267">
        <ele>63</ele>
        <time>2021-04-15T20:24:50Z</time>
      </trkpt>
      <trkpt lat="46.93385" lon="-1.25372">
        <ele>63</ele>
        <time>2021-04-15T20:26:44Z</time>
      </trkpt>
      <trkpt lat="46.93425" lon="-1.25472">
        <ele>62</ele>
        <time>2021-04-15T20:28:30Z</time>
      </trkpt>
      <trkpt lat="46.93434" lon="-1.25513">
        <ele>62</ele>
        <time>2021-04-15T20:29:09Z</time>
      </trkpt>
      <trkpt lat="46.93433" lon="-1.25558">
        <ele>62</ele>
        <time>2021-04-15T20:29:50Z</time>
      </trkpt>
      <trkpt lat="46.93435" lon="-1.25587">
        <ele>63</ele>
        <time>2021-04-15T20:30:16Z</time>
      </trkpt>
      <trkpt lat="46.93449" lon="-1.25607">
        <ele>63</ele>
        <time>2021-04-15T20:30:43Z</time>
      </trkpt>
      <trkpt lat="46.93475" lon="-1.25631">
        <ele>63</ele>
        <time>2021-04-15T20:31:24Z</time>
      </trkpt>
      <trkpt lat="46.93493" lon="-1.25618">
        <ele>62</ele>
        <time>2021-04-15T20:31:50Z</time>
      </trkpt>
      <trkpt lat="46.93563" lon="-1.25516">
        <ele>55</ele>
        <time>2021-04-15T20:34:02Z</time>
      </trkpt>
      <trkpt lat="46.93584" lon="-1.25506">
        <ele>53</ele>
        <time>2021-04-15T20:34:32Z</time>
      </trkpt>
      <trkpt lat="46.93613" lon="-1.25509">
        <ele>53</ele>
        <time>2021-04-15T20:35:10Z</time>
      </trkpt>
      <trkpt lat="46.93642" lon="-1.25501">
        <ele>52</ele>
        <time>2021-04-15T20:35:50Z</time>
      </trkpt>
      <trkpt lat="46.93666" lon="-1.25503">
        <ele>52</ele>
        <time>2021-04-15T20:36:22Z</time>
      </trkpt>
      <trkpt lat="46.93685" lon="-1.25498">
        <ele>50</ele>
        <time>2021-04-15T20:36:48Z</time>
      </trkpt>
      <trkpt lat="46.93724" lon="-1.25463">
        <ele>44</ele>
        <time>2021-04-15T20:37:49Z</time>
      </trkpt>
      <trkpt lat="46.93774" lon="-1.25458">
        <ele>41</ele>
        <time>2021-04-15T20:38:56Z</time>
      </trkpt>
      <trkpt lat="46.93825" lon="-1.25462">
        <ele>41</ele>
        <time>2021-04-15T20:40:04Z</time>
      </trkpt>
      <trkpt lat="46.93851" lon="-1.25456">
        <ele>42</ele>
        <time>2021-04-15T20:40:39Z</time>
      </trkpt>
      <trkpt lat="46.93875" lon="-1.25413">
        <ele>44</ele>
        <time>2021-04-15T20:41:29Z</time>
      </trkpt>
      <trkpt lat="46.93888" lon="-1.2538">
        <ele>45</ele>
        <time>2021-04-15T20:42:04Z</time>
      </trkpt>
      <trkpt lat="46.93922" lon="-1.25316">
        <ele>49</ele>
        <time>2021-04-15T20:43:18Z</time>
      </trkpt>
      <trkpt lat="46.93979" lon="-1.25222">
        <ele>53</ele>
        <time>2021-04-15T20:45:13Z</time>
      </trkpt>
      <trkpt lat="46.94017" lon="-1.25133">
        <ele>54</ele>
        <time>2021-04-15T20:46:48Z</time>
      </trkpt>
      <trkpt lat="46.94073" lon="-1.25018">
        <ele>57</ele>
        <time>2021-04-15T20:48:57Z</time>
      </trkpt>
      <trkpt lat="46.94077" lon="-1.24975">
        <ele>57</ele>
        <time>2021-04-15T20:49:36Z</time>
      </trkpt>
      <trkpt lat="46.94106" lon="-1.24921">
        <ele>58</ele>
        <time>2021-04-15T20:50:39Z</time>
      </trkpt>
      <trkpt lat="46.94139" lon="-1.24887">
        <ele>58</ele>
        <time>2021-04-15T20:51:33Z</time>
      </trkpt>
      <trkpt lat="46.94177" lon="-1.24858">
        <ele>59</ele>
        <time>2021-04-15T20:52:30Z</time>
      </trkpt>
      <trkpt lat="46.94202" lon="-1.24823">
        <ele>59</ele>
        <time>2021-04-15T20:53:16Z</time>
      </trkpt>
      <trkpt lat="46.94217" lon="-1.24793">
        <ele>59</ele>
        <time>2021-04-15T20:53:50Z</time>
      </trkpt>
      <trkpt lat="46.9424" lon="-1.24784">
        <ele>60</ele>
        <time>2021-04-15T20:54:22Z</time>
      </trkpt>
      <trkpt lat="46.94257" lon="-1.24764">
        <ele>61</ele>
        <time>2021-04-15T20:54:51Z</time>
      </trkpt>
      <trkpt lat="46.9429" lon="-1.24744">
        <ele>62</ele>
        <time>2021-04-15T20:55:39Z</time>
      </trkpt>
      <trkpt lat="46.94312" lon="-1.24688">
        <ele>61</ele>
        <time>2021-04-15T20:56:37Z</time>
      </trkpt>
      <trkpt lat="46.94339" lon="-1.24631">
        <ele>62</ele>
        <time>2021-04-15T20:57:41Z</time>
      </trkpt>
      <trkpt lat="46.9436" lon="-1.24604">
        <ele>62</ele>
        <time>2021-04-15T20:58:18Z</time>
      </trkpt>
      <trkpt lat="46.94423" lon="-1.24536">
        <ele>63</ele>
        <time>2021-04-15T21:00:02Z</time>
      </trkpt>
      <trkpt lat="46.94474" lon="-1.24475">
        <ele>65</ele>
        <time>2021-04-15T21:01:30Z</time>
      </trkpt>
      <trkpt lat="46.94547" lon="-1.24676">
        <ele>69</ele>
        <time>2021-04-15T21:04:58Z</time>
      </trkpt>
      <trkpt lat="46.94606" lon="-1.24883">
        <ele>72</ele>
        <time>2021-04-15T21:08:22Z</time>
      </trkpt>
      <trkpt lat="46.9462" lon="-1.2491">
        <ele>73</ele>
        <time>2021-04-15T21:08:53Z</time>
      </trkpt>
      <trkpt lat="46.94618" lon="-1.24929">
        <ele>73</ele>
        <time>2021-04-15T21:09:10Z</time>
      </trkpt>
      <trkpt lat="46.94647" lon="-1.25062">
        <ele>72</ele>
        <time>2021-04-15T21:11:18Z</time>
      </trkpt>
      <trkpt lat="46.94645" lon="-1.25082">
        <ele>72</ele>
        <time>2021-04-15T21:11:36Z</time>
      </trkpt>
      <trkpt lat="46.94696" lon="-1.25401">
        <ele>69</ele>
        <time>2021-04-15T21:16:35Z</time>
      </trkpt>
      <trkpt lat="46.94712" lon="-1.25486">
        <ele>69</ele>
        <time>2021-04-15T21:17:55Z</time>
      </trkpt>
      <trkpt lat="46.94752" lon="-1.25646">
        <ele>68</ele>
        <time>2021-04-15T21:20:30Z</time>
      </trkpt>
      <trkpt lat="46.94865" lon="-1.25979">
        <ele>66</ele>
        <time>2021-04-15T21:26:09Z</time>
      </trkpt>
      <trkpt lat="46.94926" lon="-1.26215">
        <ele>62</ele>
        <time>2021-04-15T21:29:59Z</time>
      </trkpt>
      <trkpt lat="46.94931" lon="-1.26243">
        <ele>62</ele>
        <time>2021-04-15T21:30:25Z</time>
      </trkpt>
      <trkpt lat="46.94964" lon="-1.26297">
        <ele>62</ele>
        <time>2021-04-15T21:31:31Z</time>
      </trkpt>
      <trkpt lat="46.95025" lon="-1.26434">
        <ele>59</ele>
        <time>2021-04-15T21:34:00Z</time>
      </trkpt>
      <trkpt lat="46.95059" lon="-1.26503">
        <ele>57</ele>
        <time>2021-04-15T21:35:18Z</time>
      </trkpt>
      <trkpt lat="46.95122" lon="-1.26613">
        <ele>56</ele>
        <time>2021-04-15T21:37:28Z</time>
      </trkpt>
      <trkpt lat="46.95136" lon="-1.26718">
        <ele>57</ele>
        <time>2021-04-15T21:39:06Z</time>
      </trkpt>
      <trkpt lat="46.95155" lon="-1.26781">
        <ele>58</ele>
        <time>2021-04-15T21:40:09Z</time>
      </trkpt>
      <trkpt lat="46.95184" lon="-1.26828">
        <ele>60</ele>
        <time>2021-04-15T21:41:06Z</time>
      </trkpt>
      <trkpt lat="46.95218" lon="-1.26841">
        <ele>61</ele>
        <time>2021-04-15T21:41:53Z</time>
      </trkpt>
      <trkpt lat="46.95339" lon="-1.26852">
        <ele>63</ele>
        <time>2021-04-15T21:44:35Z</time>
      </trkpt>
      <trkpt lat="46.95388" lon="-1.26943">
        <ele>62</ele>
        <time>2021-04-15T21:46:21Z</time>
      </trkpt>
      <trkpt lat="46.95431" lon="-1.27037">
        <ele>61</ele>
        <time>2021-04-15T21:48:04Z</time>
      </trkpt>
      <trkpt lat="46.9546" lon="-1.27127">
        <ele>60</ele>
        <time>2021-04-15T21:49:34Z</time>
      </trkpt>
      <trkpt lat="46.955" lon="-1.27189">
        <ele>60</ele>
        <time>2021-04-15T21:50:52Z</time>
      </trkpt>
      <trkpt lat="46.95583" lon="-1.27354">
        <ele>61</ele>
        <time>2021-04-15T21:53:59Z</time>
      </trkpt>
      <trkpt lat="46.95603" lon="-1.27402">
        <ele>61</ele>
        <time>2021-04-15T21:54:50Z</time>
      </trkpt>
      <trkpt lat="46.95672" lon="-1.27612">
        <ele>58</ele>
        <time>2021-04-15T21:58:22Z</time>
      </trkpt>
      <trkpt lat="46.95722" lon="-1.27755">
        <ele>60</ele>
        <time>2021-04-15T22:00:49Z</time>
      </trkpt>
      <trkpt lat="46.9569" lon="-1.27765">
        <ele>60</ele>
        <time>2021-04-15T22:01:32Z</time>
      </trkpt>
      <trkpt lat="46.95634" lon="-1.27762">
        <ele>61</ele>
        <time>2021-04-15T22:02:47Z</time>
      </trkpt>
      <trkpt lat="46.95569" lon="-1.27764">
        <ele>61</ele>
        <time>2021-04-15T22:04:14Z</time>
      </trkpt>
      <trkpt lat="46.95504" lon="-1.27762">
        <ele>61</ele>
        <time>2021-04-15T22:05:41Z</time>
      </trkpt>
      <trkpt lat="46.95436" lon="-1.27768">
        <ele>61</ele>
        <time>2021-04-15T22:07:11Z</time>
      </trkpt>
      <trkpt lat="46.95388" lon="-1.27775">
        <ele>61</ele>
        <time>2021-04-15T22:08:16Z</time>
      </trkpt>
      <trkpt lat="46.95337" lon="-1.27777">
        <ele>61</ele>
        <time>2021-04-15T22:09:24Z</time>
      </trkpt>
      <trkpt lat="46.95303" lon="-1.27783">
        <ele>61</ele>
        <time>2021-04-15T22:10:10Z</time>
      </trkpt>
      <trkpt lat="46.95175" lon="-1.27869">
        <ele>60</ele>
        <time>2021-04-15T22:13:18Z</time>
      </trkpt>
      <trkpt lat="46.9512" lon="-1.27897">
        <ele>60</ele>
        <time>2021-04-15T22:14:35Z</time>
      </trkpt>
      <trkpt lat="46.95074" lon="-1.27916">
        <ele>60</ele>
        <time>2021-04-15T22:15:39Z</time>
      </trkpt>
      <trkpt lat="46.9504" lon="-1.27939">
        <ele>59</ele>
        <time>2021-04-15T22:16:29Z</time>
      </trkpt>
      <trkpt lat="46.95036" lon="-1.27954">
        <ele>59</ele>
        <time>2021-04-15T22:16:44Z</time>
      </trkpt>
      <trkpt lat="46.94943" lon="-1.28042">
        <ele>57</ele>
        <time>2021-04-15T22:19:11Z</time>
      </trkpt>
      <trkpt lat="46.94891" lon="-1.28056">
        <ele>54</ele>
        <time>2021-04-15T22:20:22Z</time>
      </trkpt>
      <trkpt lat="46.94844" lon="-1.28056">
        <ele>52</ele>
        <time>2021-04-15T22:21:25Z</time>
      </trkpt>
      <trkpt lat="46.94755" lon="-1.28033">
        <ele>47</ele>
        <time>2021-04-15T22:23:25Z</time>
      </trkpt>
      <trkpt lat="46.94735" lon="-1.28024">
        <ele>45</ele>
        <time>2021-04-15T22:23:53Z</time>
      </trkpt>
      <trkpt lat="46.94723" lon="-1.28029">
        <ele>44</ele>
        <time>2021-04-15T22:24:10Z</time>
      </trkpt>
      <trkpt lat="46.94698" lon="-1.28048">
        <ele>41</ele>
        <time>2021-04-15T22:24:47Z</time>
      </trkpt>
      <trkpt lat="46.94678" lon="-1.28043">
        <ele>40</ele>
        <time>2021-04-15T22:25:14Z</time>
      </trkpt>
      <trkpt lat="46.94667" lon="-1.28044">
        <ele>39</ele>
        <time>2021-04-15T22:25:29Z</time>
      </trkpt>
      <trkpt lat="46.9466" lon="-1.281">
        <ele>37</ele>
        <time>2021-04-15T22:26:21Z</time>
      </trkpt>
      <trkpt lat="46.94654" lon="-1.28114">
        <ele>37</ele>
        <time>2021-04-15T22:26:36Z</time>
      </trkpt>
      <trkpt lat="46.94624" lon="-1.28163">
        <ele>37</ele>
        <time>2021-04-15T22:27:36Z</time>
      </trkpt>
      <trkpt lat="46.94615" lon="-1.28194">
        <ele>40</ele>
        <time>2021-04-15T22:28:07Z</time>
      </trkpt>
      <trkpt lat="46.94682" lon="-1.28228">
        <ele>37</ele>
        <time>2021-04-15T22:29:41Z</time>
      </trkpt>
      <trkpt lat="46.94751" lon="-1.28279">
        <ele>36</ele>
        <time>2021-04-15T22:31:25Z</time>
      </trkpt>
      <trkpt lat="46.94662" lon="-1.28504">
        <ele>52</ele>
        <time>2021-04-15T22:35:21Z</time>
      </trkpt>
      <trkpt lat="46.94819" lon="-1.28635">
        <ele>45</ele>
        <time>2021-04-15T22:39:23Z</time>
      </trkpt>
      <trkpt lat="46.94854" lon="-1.28625">
        <ele>43</ele>
        <time>2021-04-15T22:40:10Z</time>
      </trkpt>
      <trkpt lat="46.94886" lon="-1.28609">
        <ele>41</ele>
        <time>2021-04-15T22:40:55Z</time>
      </trkpt>
      <trkpt lat="46.94945" lon="-1.28644">
        <ele>39</ele>
        <time>2021-04-15T22:42:20Z</time>
      </trkpt>
      <trkpt lat="46.94957" lon="-1.2879">
        <ele>37</ele>
        <time>2021-04-15T22:44:34Z</time>
      </trkpt>
      <trkpt lat="46.94837" lon="-1.28884">
        <ele>42</ele>
        <time>2021-04-15T22:47:36Z</time>
      </trkpt>
      <trkpt lat="46.94807" lon="-1.28988">
        <ele>41</ele>
        <time>2021-04-15T22:49:19Z</time>
      </trkpt>
      <trkpt lat="46.94807" lon="-1.2915">
        <ele>39</ele>
        <time>2021-04-15T22:51:46Z</time>
      </trkpt>
      <trkpt lat="46.94824" lon="-1.29226">
        <ele>38</ele>
        <time>2021-04-15T22:52:59Z</time>
      </trkpt>
      <trkpt lat="46.94844" lon="-1.2934">
        <ele>41</ele>
        <time>2021-04-15T22:54:46Z</time>
      </trkpt>
      <trkpt lat="46.94845" lon="-1.29362">
        <ele>41</ele>
        <time>2021-04-15T22:55:06Z</time>
      </trkpt>
      <trkpt lat="46.94839" lon="-1.2937">
        <ele>42</ele>
        <time>2021-04-15T22:55:17Z</time>
      </trkpt>
      <trkpt lat="46.94838" lon="-1.29387">
        <ele>42</ele>
        <time>2021-04-15T22:55:33Z</time>
      </trkpt>
      <trkpt lat="46.94839" lon="-1.29458">
        <ele>43</ele>
        <time>2021-04-15T22:56:37Z</time>
      </trkpt>
      <trkpt lat="46.94821" lon="-1.2948">
        <ele>46</ele>
        <time>2021-04-15T22:57:09Z</time>
      </trkpt>
      <trkpt lat="46.9482" lon="-1.29489">
        <ele>46</ele>
        <time>2021-04-15T22:57:17Z</time>
      </trkpt>
      <trkpt lat="46.94778" lon="-1.29507">
        <ele>50</ele>
        <time>2021-04-15T22:58:15Z</time>
      </trkpt>
      <trkpt lat="46.9476" lon="-1.2951">
        <ele>51</ele>
        <time>2021-04-15T22:58:40Z</time>
      </trkpt>
      <trkpt lat="46.94752" lon="-1.29506">
        <ele>52</ele>
        <time>2021-04-15T22:58:51Z</time>
      </trkpt>
      <trkpt lat="46.94738" lon="-1.29521">
        <ele>52</ele>
        <time>2021-04-15T22:59:14Z</time>
      </trkpt>
      <trkpt lat="46.9473" lon="-1.29525">
        <ele>52</ele>
        <time>2021-04-15T22:59:25Z</time>
      </trkpt>
      <trkpt lat="46.94724" lon="-1.29519">
        <ele>51</ele>
        <time>2021-04-15T22:59:35Z</time>
      </trkpt>
      <trkpt lat="46.94711" lon="-1.29529">
        <ele>50</ele>
        <time>2021-04-15T22:59:55Z</time>
      </trkpt>
      <trkpt lat="46.94697" lon="-1.29582">
        <ele>49</ele>
        <time>2021-04-15T23:00:46Z</time>
      </trkpt>
      <trkpt lat="46.94693" lon="-1.2961">
        <ele>48</ele>
        <time>2021-04-15T23:01:12Z</time>
      </trkpt>
      <trkpt lat="46.94685" lon="-1.2964">
        <ele>47</ele>
        <time>2021-04-15T23:01:42Z</time>
      </trkpt>
      <trkpt lat="46.9467" lon="-1.29717">
        <ele>43</ele>
        <time>2021-04-15T23:02:55Z</time>
      </trkpt>
      <trkpt lat="46.94653" lon="-1.29748">
        <ele>41</ele>
        <time>2021-04-15T23:03:31Z</time>
      </trkpt>
      <trkpt lat="46.94638" lon="-1.2976">
        <ele>38</ele>
        <time>2021-04-15T23:03:54Z</time>
      </trkpt>
      <trkpt lat="46.94623" lon="-1.29767">
        <ele>37</ele>
        <time>2021-04-15T23:04:15Z</time>
      </trkpt>
      <trkpt lat="46.9457" lon="-1.29768">
        <ele>34</ele>
        <time>2021-04-15T23:05:25Z</time>
      </trkpt>
      <trkpt lat="46.94546" lon="-1.29772">
        <ele>35</ele>
        <time>2021-04-15T23:05:58Z</time>
      </trkpt>
      <trkpt lat="46.94537" lon="-1.29653">
        <ele>34</ele>
        <time>2021-04-15T23:07:47Z</time>
      </trkpt>
      <trkpt lat="46.94527" lon="-1.2961">
        <ele>34</ele>
        <time>2021-04-15T23:08:28Z</time>
      </trkpt>
      <trkpt lat="46.94509" lon="-1.29576">
        <ele>33</ele>
        <time>2021-04-15T23:09:07Z</time>
      </trkpt>
      <trkpt lat="46.94439" lon="-1.29475">
        <ele>31</ele>
        <time>2021-04-15T23:11:18Z</time>
      </trkpt>
      <trkpt lat="46.94423" lon="-1.2947">
        <ele>31</ele>
        <time>2021-04-15T23:11:40Z</time>
      </trkpt>
      <trkpt lat="46.9441" lon="-1.29474">
        <ele>32</ele>
        <time>2021-04-15T23:11:58Z</time>
      </trkpt>
      <trkpt lat="46.94395" lon="-1.2949">
        <ele>31</ele>
        <time>2021-04-15T23:12:23Z</time>
      </trkpt>
      <trkpt lat="46.94191" lon="-1.29799">
        <ele>38</ele>
        <time>2021-04-15T23:18:54Z</time>
      </trkpt>
      <trkpt lat="46.94139" lon="-1.29859">
        <ele>38</ele>
        <time>2021-04-15T23:20:23Z</time>
      </trkpt>
      <trkpt lat="46.94075" lon="-1.29927">
        <ele>38</ele>
        <time>2021-04-15T23:22:08Z</time>
      </trkpt>
      <trkpt lat="46.94047" lon="-1.29954">
        <ele>39</ele>
        <time>2021-04-15T23:22:53Z</time>
      </trkpt>
      <trkpt lat="46.93976" lon="-1.30004">
        <ele>40</ele>
        <time>2021-04-15T23:24:38Z</time>
      </trkpt>
      <trkpt lat="46.93964" lon="-1.30003">
        <ele>39</ele>
        <time>2021-04-15T23:24:54Z</time>
      </trkpt>
      <trkpt lat="46.93953" lon="-1.29997">
        <ele>39</ele>
        <time>2021-04-15T23:25:10Z</time>
      </trkpt>
      <trkpt lat="46.93902" lon="-1.29953">
        <ele>38</ele>
        <time>2021-04-15T23:26:29Z</time>
      </trkpt>
      <trkpt lat="46.93892" lon="-1.29951">
        <ele>39</ele>
        <time>2021-04-15T23:26:42Z</time>
      </trkpt>
      <trkpt lat="46.93873" lon="-1.29986">
        <ele>41</ele>
        <time>2021-04-15T23:27:23Z</time>
      </trkpt>
      <trkpt lat="46.93841" lon="-1.30033">
        <ele>45</ele>
        <time>2021-04-15T23:28:24Z</time>
      </trkpt>
      <trkpt lat="46.93834" lon="-1.30039">
        <ele>45</ele>
        <time>2021-04-15T23:28:34Z</time>
      </trkpt>
      <trkpt lat="46.93826" lon="-1.30039">
        <ele>46</ele>
        <time>2021-04-15T23:28:45Z</time>
      </trkpt>
      <trkpt lat="46.93798" lon="-1.30023">
        <ele>48</ele>
        <time>2021-04-15T23:29:25Z</time>
      </trkpt>
      <trkpt lat="46.93791" lon="-1.30023">
        <ele>48</ele>
        <time>2021-04-15T23:29:34Z</time>
      </trkpt>
      <trkpt lat="46.93785" lon="-1.29994">
        <ele>48</ele>
        <time>2021-04-15T23:30:02Z</time>
      </trkpt>
      <trkpt lat="46.9375" lon="-1.29905">
        <ele>52</ele>
        <time>2021-04-15T23:31:36Z</time>
      </trkpt>
      <trkpt lat="46.93742" lon="-1.29866">
        <ele>52</ele>
        <time>2021-04-15T23:32:13Z</time>
      </trkpt>
      <trkpt lat="46.93743" lon="-1.29848">
        <ele>51</ele>
        <time>2021-04-15T23:32:29Z</time>
      </trkpt>
      <trkpt lat="46.93757" lon="-1.29826">
        <ele>50</ele>
        <time>2021-04-15T23:32:57Z</time>
      </trkpt>
      <trkpt lat="46.93774" lon="-1.29814">
        <ele>47</ele>
        <time>2021-04-15T23:33:22Z</time>
      </trkpt>
      <trkpt lat="46.93792" lon="-1.29783">
        <ele>43</ele>
        <time>2021-04-15T23:33:59Z</time>
      </trkpt>
      <trkpt lat="46.93796" lon="-1.2976">
        <ele>41</ele>
        <time>2021-04-15T23:34:21Z</time>
      </trkpt>
      <trkpt lat="46.93795" lon="-1.29731">
        <ele>41</ele>
        <time>2021-04-15T23:34:47Z</time>
      </trkpt>
      <trkpt lat="46.93766" lon="-1.2967">
        <ele>44</ele>
        <time>2021-04-15T23:35:55Z</time>
      </trkpt>
      <trkpt lat="46.93713" lon="-1.29531">
        <ele>44</ele>
        <time>2021-04-15T23:38:20Z</time>
      </trkpt>
      <trkpt lat="46.93709" lon="-1.29508">
        <ele>45</ele>
        <time>2021-04-15T23:38:41Z</time>
      </trkpt>
      <trkpt lat="46.93708" lon="-1.29484">
        <ele>43</ele>
        <time>2021-04-15T23:39:03Z</time>
      </trkpt>
      <trkpt lat="46.93698" lon="-1.29462">
        <ele>42</ele>
        <time>2021-04-15T23:39:27Z</time>
      </trkpt>
      <trkpt lat="46.93647" lon="-1.29406">
        <ele>40</ele>
        <time>2021-04-15T23:40:52Z</time>
      </trkpt>
      <trkpt lat="46.93615" lon="-1.29394">
        <ele>41</ele>
        <time>2021-04-15T23:41:37Z</time>
      </trkpt>
      <trkpt lat="46.93611" lon="-1.2939">
        <ele>41</ele>
        <time>2021-04-15T23:41:43Z</time>
      </trkpt>
      <trkpt lat="46.93606" lon="-1.29368">
        <ele>39</ele>
        <time>2021-04-15T23:42:04Z</time>
      </trkpt>
      <trkpt lat="46.93606" lon="-1.29321">
        <ele>36</ele>
        <time>2021-04-15T23:42:47Z</time>
      </trkpt>
      <trkpt lat="46.93616" lon="-1.2923">
        <ele>34</ele>
        <time>2021-04-15T23:44:11Z</time>
      </trkpt>
      <trkpt lat="46.93616" lon="-1.29208">
        <ele>34</ele>
        <time>2021-04-15T23:44:31Z</time>
      </trkpt>
      <trkpt lat="46.93613" lon="-1.29198">
        <ele>34</ele>
        <time>2021-04-15T23:44:41Z</time>
      </trkpt>
      <trkpt lat="46.93608" lon="-1.29193">
        <ele>34</ele>
        <time>2021-04-15T23:44:49Z</time>
      </trkpt>
      <trkpt lat="46.93602" lon="-1.29192">
        <ele>34</ele>
        <time>2021-04-15T23:44:57Z</time>
      </trkpt>
      <trkpt lat="46.93565" lon="-1.29197">
        <ele>33</ele>
        <time>2021-04-15T23:45:47Z</time>
      </trkpt>
      <trkpt lat="46.93555" lon="-1.29194">
        <ele>33</ele>
        <time>2021-04-15T23:46:00Z</time>
      </trkpt>
      <trkpt lat="46.93542" lon="-1.29189">
        <ele>33</ele>
        <time>2021-04-15T23:46:18Z</time>
      </trkpt>
      <trkpt lat="46.93504" lon="-1.29159">
        <ele>33</ele>
        <time>2021-04-15T23:47:16Z</time>
      </trkpt>
      <trkpt lat="46.93474" lon="-1.29141">
        <ele>35</ele>
        <time>2021-04-15T23:47:59Z</time>
      </trkpt>
      <trkpt lat="46.93442" lon="-1.29134">
        <ele>38</ele>
        <time>2021-04-15T23:48:42Z</time>
      </trkpt>
      <trkpt lat="46.93342" lon="-1.29103">
        <ele>45</ele>
        <time>2021-04-15T23:50:59Z</time>
      </trkpt>
      <trkpt lat="46.93343" lon="-1.29093">
        <ele>45</ele>
        <time>2021-04-15T23:51:08Z</time>
      </trkpt>
      <trkpt lat="46.93374" lon="-1.29052">
        <ele>43</ele>
        <time>2021-04-15T23:52:04Z</time>
      </trkpt>
      <trkpt lat="46.93409" lon="-1.29009">
        <ele>41</ele>
        <time>2021-04-15T23:53:05Z</time>
      </trkpt>
      <trkpt lat="46.93424" lon="-1.29">
        <ele>39</ele>
        <time>2021-04-15T23:53:26Z</time>
      </trkpt>
      <trkpt lat="46.93434" lon="-1.29">
        <ele>39</ele>
        <time>2021-04-15T23:53:40Z</time>
      </trkpt>
      <trkpt lat="46.93445" lon="-1.29008">
        <ele>38</ele>
        <time>2021-04-15T23:53:56Z</time>
      </trkpt>
      <trkpt lat="46.9346" lon="-1.29013">
        <ele>37</ele>
        <time>2021-04-15T23:54:16Z</time>
      </trkpt>
      <trkpt lat="46.93502" lon="-1.29013">
        <ele>33</ele>
        <time>2021-04-15T23:55:13Z</time>
      </trkpt>
      <trkpt lat="46.93564" lon="-1.29009">
        <ele>34</ele>
        <time>2021-04-15T23:56:35Z</time>
      </trkpt>
      <trkpt lat="46.93616" lon="-1.29017">
        <ele>36</ele>
        <time>2021-04-15T23:57:45Z</time>
      </trkpt>
      <trkpt lat="46.93631" lon="-1.28529">
        <ele>52</ele>
        <time>2021-04-16T00:05:10Z</time>
      </trkpt>
      <trkpt lat="46.93666" lon="-1.28466">
        <ele>53</ele>
        <time>2021-04-16T00:06:24Z</time>
      </trkpt>
      <trkpt lat="46.93844" lon="-1.28709">
        <ele>53</ele>
        <time>2021-04-16T00:11:49Z</time>
      </trkpt>
      <trkpt lat="46.93851" lon="-1.28727">
        <ele>53</ele>
        <time>2021-04-16T00:12:08Z</time>
      </trkpt>
      <trkpt lat="46.93788" lon="-1.28778">
        <ele>51</ele>
        <time>2021-04-16T00:13:44Z</time>
      </trkpt>
      <trkpt lat="46.93733" lon="-1.28817">
        <ele>48</ele>
        <time>2021-04-16T00:15:05Z</time>
      </trkpt>
      <trkpt lat="46.93704" lon="-1.28876">
        <ele>45</ele>
        <time>2021-04-16T00:16:12Z</time>
      </trkpt>
      <trkpt lat="46.93709" lon="-1.28914">
        <ele>45</ele>
        <time>2021-04-16T00:16:47Z</time>
      </trkpt>
      <trkpt lat="46.93778" lon="-1.2894">
        <ele>47</ele>
        <time>2021-04-16T00:18:22Z</time>
      </trkpt>
      <trkpt lat="46.93824" lon="-1.28983">
        <ele>46</ele>
        <time>2021-04-16T00:19:35Z</time>
      </trkpt>
      <trkpt lat="46.93849" lon="-1.28983">
        <ele>47</ele>
        <time>2021-04-16T00:20:08Z</time>
      </trkpt>
      <trkpt lat="46.93909" lon="-1.29056">
        <ele>47</ele>
        <time>2021-04-16T00:21:52Z</time>
      </trkpt>
      <trkpt lat="46.93972" lon="-1.29171">
        <ele>48</ele>
        <time>2021-04-16T00:24:07Z</time>
      </trkpt>
      <trkpt lat="46.93989" lon="-1.2923">
        <ele>48</ele>
        <time>2021-04-16T00:25:05Z</time>
      </trkpt>
      <trkpt lat="46.94037" lon="-1.29344">
        <ele>47</ele>
        <time>2021-04-16T00:27:07Z</time>
      </trkpt>
      <trkpt lat="46.94099" lon="-1.29239">
        <ele>53</ele>
        <time>2021-04-16T00:29:13Z</time>
      </trkpt>
      <trkpt lat="46.94245" lon="-1.29405">
        <ele>46</ele>
        <time>2021-04-16T00:33:20Z</time>
      </trkpt>
      <trkpt lat="46.94293" lon="-1.29373">
        <ele>46</ele>
        <time>2021-04-16T00:34:30Z</time>
      </trkpt>
      <trkpt lat="46.94254" lon="-1.29333">
        <ele>51</ele>
        <time>2021-04-16T00:35:34Z</time>
      </trkpt>
    </trkseg>
  </trk>
</gpx>